Time;durP1;ratioP1;P1;durP2;ratioP2;P2;SDS_P1;SDS_P2;PMS_P1;PMS_P2;Temp;Humidity;BMP_temperature;BMP_pressure;BME280_temperature;BME280_humidity;BME280_pressure;Samples;Min_cycle;Max_cycle;Signal;HPM_P1;HPM_P2
2021/11/24 00:00:06;;;;;;;26.40;10.05;;;;;;;;;;4999670;28;20538;-54
2021/11/24 00:02:31;;;;;;;24.05;10.35;;;;;;;;;;4997829;28;20038;-56
2021/11/24 00:04:57;;;;;;;26.17;10.20;;;;;;;;;;5001138;28;20092;-56
2021/11/24 00:07:22;;;;;;;30.33;11.93;;;;;;;;;;5001676;28;20132;-57
2021/11/24 00:09:48;;;;;;;29.13;11.63;;;;;;;;;;5001913;28;20212;-55
2021/11/24 00:12:13;;;;;;;34.00;11.77;;;;;;;;;;5003293;28;20033;-57
2021/11/24 00:14:39;;;;;;;29.95;11.60;;;;;;;;;;5000927;28;20030;-55
2021/11/24 00:17:04;;;;;;;30.15;11.98;;;;;;;;;;5001359;28;20555;-55
2021/11/24 00:19:30;;;;;;;26.20;10.63;;;;;;;;;;4999274;28;20057;-55
2021/11/24 00:21:55;;;;;;;27.48;10.98;;;;;;;;;;5001373;28;20118;-53
2021/11/24 00:24:21;;;;;;;30.30;11.38;;;;;;;;;;5004576;28;20033;-55
2021/11/24 00:26:47;;;;;;;30.17;10.75;;;;;;;;;;5004672;28;20530;-55
2021/11/24 00:29:12;;;;;;;34.10;11.82;;;;;;;;;;5002895;28;20242;-55
2021/11/24 00:31:38;;;;;;;31.23;11.77;;;;;;;;;;5002614;28;20029;-55
2021/11/24 00:34:04;;;;;;;28.98;10.80;;;;;;;;;;5003271;28;20036;-55
2021/11/24 00:36:29;;;;;;;25.60;10.43;;;;;;;;;;5000013;28;20500;-56
2021/11/24 00:38:55;;;;;;;28.98;10.88;;;;;;;;;;5000333;28;20037;-57
2021/11/24 00:41:20;;;;;;;33.05;11.68;;;;;;;;;;5000369;28;20380;-56
2021/11/24 00:43:45;;;;;;;30.25;10.57;;;;;;;;;;5003173;28;20033;-56
2021/11/24 00:46:11;;;;;;;34.15;12.30;;;;;;;;;;4998917;28;20033;-56
2021/11/24 00:48:36;;;;;;;31.30;11.68;;;;;;;;;;5000072;28;20303;-54
2021/11/24 00:51:02;;;;;;;42.40;14.02;;;;;;;;;;5002428;28;20189;-57
2021/11/24 00:53:28;;;;;;;31.98;11.70;;;;;;;;;;5002009;28;20113;-53
2021/11/24 00:55:55;;;;;;;33.28;11.48;;;;;;;;;;5002253;28;20117;-54
2021/11/24 00:58:20;;;;;;;26.83;11.18;;;;;;;;;;4999656;28;20025;-56
2021/11/24 01:00:46;;;;;;;35.53;12.57;;;;;;;;;;5002390;28;20084;-56
2021/11/24 01:03:12;;;;;;;34.70;12.68;;;;;;;;;;4998777;28;20033;-56
2021/11/24 01:05:38;;;;;;;37.67;13.10;;;;;;;;;;5000322;28;20133;-56
2021/11/24 01:08:03;;;;;;;43.05;14.45;;;;;;;;;;5001672;28;20029;-54
2021/11/24 01:10:29;;;;;;;40.40;14.65;;;;;;;;;;4999178;28;20038;-54
2021/11/24 01:12:55;;;;;;;41.40;14.40;;;;;;;;;;5003415;28;20041;-55
2021/11/24 01:15:22;;;;;;;47.55;15.73;;;;;;;;;;5001995;28;20026;-53
2021/11/24 01:17:47;;;;;;;41.88;13.82;;;;;;;;;;5001887;28;20112;-54
2021/11/24 01:20:14;;;;;;;36.33;13.23;;;;;;;;;;4999952;28;20506;-55
2021/11/24 01:22:40;;;;;;;38.63;12.68;;;;;;;;;;5000953;28;20075;-58
2021/11/24 01:25:06;;;;;;;38.72;13.57;;;;;;;;;;5003663;28;20062;-56
2021/11/24 01:27:32;;;;;;;38.65;13.80;;;;;;;;;;4999243;28;20060;-55
2021/11/24 01:29:57;;;;;;;39.47;14.55;;;;;;;;;;4997947;28;20043;-54
2021/11/24 01:32:23;;;;;;;41.55;13.38;;;;;;;;;;4998557;28;20084;-57
2021/11/24 01:34:48;;;;;;;45.40;14.40;;;;;;;;;;4996537;28;20026;-56
2021/11/24 01:37:14;;;;;;;38.53;14.10;;;;;;;;;;5001377;28;20519;-56
2021/11/24 01:39:39;;;;;;;39.75;13.20;;;;;;;;;;5001955;28;20061;-56
2021/11/24 01:42:05;;;;;;;36.05;13.15;;;;;;;;;;5004048;28;20030;-56
2021/11/24 01:44:30;;;;;;;38.35;12.70;;;;;;;;;;5001891;28;20037;-56
2021/11/24 01:47:00;;;;;;;38.65;12.63;;;;;;;;;;5004153;28;20040;-56
2021/11/24 01:49:26;;;;;;;40.10;13.55;;;;;;;;;;5005212;28;20241;-56
2021/11/24 01:51:53;;;;;;;36.85;12.60;;;;;;;;;;5002784;28;20354;-55
2021/11/24 01:54:19;;;;;;;42.03;14.23;;;;;;;;;;5007637;28;20400;-55
2021/11/24 01:56:45;;;;;;;39.55;12.85;;;;;;;;;;5002854;28;20205;-56
2021/11/24 01:59:13;;;;;;;38.33;13.00;;;;;;;;;;5008625;28;20029;-55
2021/11/24 02:01:44;;;;;;;38.63;13.35;;;;;;;;;;5005837;28;20489;-54
2021/11/24 02:04:11;;;;;;;39.72;12.57;;;;;;;;;;5008791;28;20042;-54
2021/11/24 02:06:37;;;;;;;35.67;12.85;;;;;;;;;;5002045;28;20523;-54
2021/11/24 02:09:03;;;;;;;40.63;13.27;;;;;;;;;;5000310;28;20025;-56
2021/11/24 02:11:29;;;;;;;41.58;14.32;;;;;;;;;;5002772;28;20029;-54
2021/11/24 02:13:54;;;;;;;38.47;13.52;;;;;;;;;;5007107;28;20512;-56
2021/11/24 02:16:20;;;;;;;40.25;14.25;;;;;;;;;;5001780;28;20112;-56
2021/11/24 02:18:45;;;;;;;40.30;14.27;;;;;;;;;;5004430;28;20500;-56
2021/11/24 02:21:11;;;;;;;47.90;14.60;;;;;;;;;;5002519;28;20046;-55
2021/11/24 02:23:37;;;;;;;36.30;13.50;;;;;;;;;;5004565;28;20076;-54
2021/11/24 02:26:02;;;;;;;43.08;14.38;;;;;;;;;;5003073;28;20503;-56
2021/11/24 02:28:28;;;;;;;48.13;14.98;;;;;;;;;;5002928;28;20033;-55
2021/11/24 02:30:54;;;;;;;43.80;13.40;;;;;;;;;;5004162;28;20451;-56
2021/11/24 02:33:19;;;;;;;46.83;14.32;;;;;;;;;;5004108;28;20037;-56
2021/11/24 02:35:45;;;;;;;39.03;13.35;;;;;;;;;;5001303;28;20108;-54
2021/11/24 02:38:14;;;;;;;44.90;14.93;;;;;;;;;;5002382;28;20030;-56
2021/11/24 02:40:41;;;;;;;46.53;14.27;;;;;;;;;;5006259;28;20033;-56
2021/11/24 02:43:07;;;;;;;49.90;15.48;;;;;;;;;;5004866;28;20037;-57
2021/11/24 02:45:33;;;;;;;45.17;14.70;;;;;;;;;;5003492;28;20049;-57
2021/11/24 02:47:58;;;;;;;41.40;13.32;;;;;;;;;;5003251;28;20058;-57
2021/11/24 02:50:24;;;;;;;42.88;14.60;;;;;;;;;;5004627;28;20370;-57
2021/11/24 02:52:50;;;;;;;38.38;14.20;;;;;;;;;;5004913;28;20061;-57
2021/11/24 02:55:16;;;;;;;45.30;15.32;;;;;;;;;;5003661;28;20089;-57
2021/11/24 02:57:44;;;;;;;45.28;15.60;;;;;;;;;;5000310;28;20026;-57
2021/11/24 03:00:12;;;;;;;46.97;14.32;;;;;;;;;;5000944;28;20026;-57
2021/11/24 03:02:38;;;;;;;43.35;15.40;;;;;;;;;;5000532;28;20046;-55
2021/11/24 03:05:04;;;;;;;45.92;16.25;;;;;;;;;;4999584;28;20168;-58
2021/11/24 03:07:29;;;;;;;54.63;17.90;;;;;;;;;;4996016;28;20125;-56
2021/11/24 03:09:55;;;;;;;55.38;16.02;;;;;;;;;;5002455;28;20065;-56
2021/11/24 03:12:21;;;;;;;50.03;15.10;;;;;;;;;;5001586;28;20021;-56
2021/11/24 03:14:47;;;;;;;45.35;14.60;;;;;;;;;;5005346;28;20034;-57
2021/11/24 03:17:13;;;;;;;44.55;14.63;;;;;;;;;;5000957;28;20021;-55
2021/11/24 03:19:38;;;;;;;43.63;14.65;;;;;;;;;;5003618;28;20037;-57
2021/11/24 03:22:04;;;;;;;44.42;13.30;;;;;;;;;;5002221;28;20711;-56
2021/11/24 03:24:29;;;;;;;40.28;14.48;;;;;;;;;;5006247;28;20485;-56
2021/11/24 03:26:55;;;;;;;42.92;14.50;;;;;;;;;;5004665;28;20607;-57
2021/11/24 03:29:20;;;;;;;47.00;15.25;;;;;;;;;;5002705;28;20034;-56
2021/11/24 03:31:46;;;;;;;43.45;14.02;;;;;;;;;;5002105;28;20034;-56
2021/11/24 03:34:11;;;;;;;41.63;13.90;;;;;;;;;;5003467;28;20033;-56
2021/11/24 03:36:37;;;;;;;46.55;14.32;;;;;;;;;;5003255;28;20021;-55
2021/11/24 03:39:04;;;;;;;41.78;13.98;;;;;;;;;;5003798;28;20044;-57
2021/11/24 03:41:29;;;;;;;39.88;13.23;;;;;;;;;;5001545;28;20424;-56
2021/11/24 03:43:55;;;;;;;41.88;14.80;;;;;;;;;;5003705;28;20030;-56
2021/11/24 03:46:21;;;;;;;48.67;15.85;;;;;;;;;;5000271;28;20030;-58
2021/11/24 03:48:46;;;;;;;49.55;15.30;;;;;;;;;;5001202;28;20026;-56
2021/11/24 03:51:12;;;;;;;49.13;15.20;;;;;;;;;;5002609;28;20025;-55
2021/11/24 03:53:40;;;;;;;46.60;14.52;;;;;;;;;;4998137;28;20109;-55
2021/11/24 03:56:08;;;;;;;45.95;14.70;;;;;;;;;;5003521;28;20052;-56
2021/11/24 03:58:33;;;;;;;43.58;15.85;;;;;;;;;;4996188;28;20058;-55
2021/11/24 04:00:59;;;;;;;42.92;14.80;;;;;;;;;;5002408;28;20073;-54
2021/11/24 04:03:24;;;;;;;39.58;14.73;;;;;;;;;;4998859;28;20048;-57
2021/11/24 04:05:52;;;;;;;49.03;15.73;;;;;;;;;;5000720;28;20073;-56
2021/11/24 04:08:19;;;;;;;47.53;16.15;;;;;;;;;;5001226;28;20036;-55
2021/11/24 04:10:44;;;;;;;47.97;16.15;;;;;;;;;;4998859;28;20030;-56
2021/11/24 04:13:10;;;;;;;74.63;21.77;;;;;;;;;;5002069;28;20500;-56
2021/11/24 04:15:35;;;;;;;105.60;26.13;;;;;;;;;;4997080;28;20022;-55
2021/11/24 04:18:01;;;;;;;101.43;26.83;;;;;;;;;;5001179;28;20053;-56
2021/11/24 04:20:26;;;;;;;99.43;26.70;;;;;;;;;;4999066;28;20038;-55
2021/11/24 04:22:55;;;;;;;78.72;23.77;;;;;;;;;;5005969;28;20048;-56
2021/11/24 04:25:20;;;;;;;63.45;20.88;;;;;;;;;;5003918;28;20025;-57
2021/11/24 04:27:47;;;;;;;61.10;17.70;;;;;;;;;;4999664;28;20378;-55
2021/11/24 04:30:14;;;;;;;54.50;18.95;;;;;;;;;;5001740;28;20677;-57
2021/11/24 04:32:41;;;;;;;62.58;20.33;;;;;;;;;;5005598;28;20469;-55
2021/11/24 04:35:08;;;;;;;65.47;20.77;;;;;;;;;;4999492;28;20037;-56
2021/11/24 04:37:33;;;;;;;63.97;21.77;;;;;;;;;;5000428;28;20045;-55
2021/11/24 04:39:59;;;;;;;72.30;23.60;;;;;;;;;;5001408;28;20218;-55
2021/11/24 04:42:24;;;;;;;67.35;21.17;;;;;;;;;;5004896;28;20038;-57
2021/11/24 04:44:50;;;;;;;61.50;19.88;;;;;;;;;;5003214;28;20405;-56
2021/11/24 04:47:15;;;;;;;60.53;21.25;;;;;;;;;;5002650;28;20099;-55
2021/11/24 04:49:41;;;;;;;63.20;21.90;;;;;;;;;;4999401;28;20038;-57
2021/11/24 04:52:06;;;;;;;54.72;20.38;;;;;;;;;;5004196;28;20349;-57
2021/11/24 04:54:32;;;;;;;59.10;20.15;;;;;;;;;;5000946;28;20030;-57
2021/11/24 04:56:57;;;;;;;54.30;18.70;;;;;;;;;;4999262;28;20522;-56
2021/11/24 04:59:23;;;;;;;47.85;17.88;;;;;;;;;;5002144;28;20038;-56
2021/11/24 05:01:49;;;;;;;48.20;17.52;;;;;;;;;;4998978;28;20030;-55
2021/11/24 05:04:14;;;;;;;47.05;17.98;;;;;;;;;;5001458;28;20026;-58
2021/11/24 05:06:40;;;;;;;53.92;20.00;;;;;;;;;;4998539;28;20038;-55
2021/11/24 05:09:06;;;;;;;47.85;17.45;;;;;;;;;;5000926;28;20034;-56
2021/11/24 05:11:34;;;;;;;52.88;18.75;;;;;;;;;;4998265;28;20027;-58
2021/11/24 05:14:01;;;;;;;50.67;20.10;;;;;;;;;;4999998;28;20030;-56
2021/11/24 05:16:31;;;;;;;50.33;19.05;;;;;;;;;;4997560;28;20409;-55
2021/11/24 05:18:58;;;;;;;51.97;19.08;;;;;;;;;;4999391;28;20034;-55
2021/11/24 05:23:52;;;;;;;46.47;18.25;;;;;;;;;;5002485;28;20093;-57
2021/11/24 05:26:18;;;;;;;43.90;17.20;;;;;;;;;;5000899;28;20050;-56
2021/11/24 05:28:44;;;;;;;46.00;17.13;;;;;;;;;;5004261;28;20040;-55
2021/11/24 05:31:09;;;;;;;46.97;17.90;;;;;;;;;;5001720;28;20022;-56
2021/11/24 05:33:36;;;;;;;46.17;17.95;;;;;;;;;;5002965;28;20074;-56
2021/11/24 05:36:03;;;;;;;48.08;17.92;;;;;;;;;;5002359;28;20026;-56
2021/11/24 05:38:28;;;;;;;48.38;18.70;;;;;;;;;;5002850;28;20114;-56
2021/11/24 05:40:54;;;;;;;49.22;17.67;;;;;;;;;;5004379;28;20049;-56
2021/11/24 05:43:22;;;;;;;46.80;18.30;;;;;;;;;;5001584;28;20120;-56
2021/11/24 05:48:21;;;;;;;50.72;18.35;;;;;;;;;;5003372;28;20025;-56
2021/11/24 05:50:48;;;;;;;48.60;17.88;;;;;;;;;;5005362;28;20407;-56
2021/11/24 05:53:16;;;;;;;44.10;16.85;;;;;;;;;;5003668;28;20025;-57
2021/11/24 05:55:42;;;;;;;48.25;17.27;;;;;;;;;;5004017;28;20018;-57
2021/11/24 05:58:08;;;;;;;46.97;17.30;;;;;;;;;;5003763;28;20029;-55
2021/11/24 06:00:34;;;;;;;49.03;16.92;;;;;;;;;;5002214;28;20038;-55
2021/11/24 06:02:59;;;;;;;45.15;17.08;;;;;;;;;;5001358;28;20120;-56
2021/11/24 06:05:25;;;;;;;50.15;18.65;;;;;;;;;;5001309;28;20057;-56
2021/11/24 06:07:51;;;;;;;51.60;18.50;;;;;;;;;;5001660;28;20072;-57
2021/11/24 06:10:16;;;;;;;45.75;18.13;;;;;;;;;;4966106;28;1142862;-55
2021/11/24 06:12:42;;;;;;;44.97;17.02;;;;;;;;;;5003938;28;20080;-56
2021/11/24 06:15:08;;;;;;;46.13;17.00;;;;;;;;;;5005629;28;20050;-56
2021/11/24 06:17:33;;;;;;;40.78;16.15;;;;;;;;;;4999406;28;20038;-56
2021/11/24 06:19:59;;;;;;;45.10;17.23;;;;;;;;;;4999893;28;20061;-55
2021/11/24 06:22:24;;;;;;;48.75;16.38;;;;;;;;;;5004221;28;20485;-56
2021/11/24 06:24:50;;;;;;;52.00;17.02;;;;;;;;;;5002882;28;20121;-55
2021/11/24 06:27:15;;;;;;;42.60;17.15;;;;;;;;;;5003049;28;20034;-55
2021/11/24 06:29:41;;;;;;;46.60;16.85;;;;;;;;;;5004560;28;20411;-55
2021/11/24 06:32:07;;;;;;;45.28;17.02;;;;;;;;;;5001460;28;20066;-56
2021/11/24 06:34:32;;;;;;;43.13;16.30;;;;;;;;;;5007241;28;20037;-57
2021/11/24 06:36:58;;;;;;;45.30;16.35;;;;;;;;;;5001353;28;20034;-56
2021/11/24 06:39:25;;;;;;;44.95;16.95;;;;;;;;;;5000513;28;20508;-56
2021/11/24 06:41:54;;;;;;;47.30;18.83;;;;;;;;;;5000508;28;20033;-56
2021/11/24 06:44:20;;;;;;;48.40;19.35;;;;;;;;;;5002705;28;20109;-57
2021/11/24 06:46:45;;;;;;;50.75;19.35;;;;;;;;;;5001694;28;20056;-55
2021/11/24 06:49:11;;;;;;;51.92;20.27;;;;;;;;;;5002818;28;20099;-56
2021/11/24 06:51:37;;;;;;;47.67;18.30;;;;;;;;;;5008547;28;20037;-56
2021/11/24 06:54:02;;;;;;;45.75;17.95;;;;;;;;;;5003421;28;20026;-56
2021/11/24 06:56:27;;;;;;;49.05;18.90;;;;;;;;;;5003994;28;20029;-56
2021/11/24 06:58:53;;;;;;;55.15;21.33;;;;;;;;;;5003344;28;20373;-57
2021/11/24 07:01:18;;;;;;;62.78;20.08;;;;;;;;;;5004007;28;20668;-55
2021/11/24 07:03:44;;;;;;;49.67;18.55;;;;;;;;;;5003534;28;20025;-56
2021/11/24 07:06:09;;;;;;;39.50;16.33;;;;;;;;;;5000620;28;20034;-56
2021/11/24 07:08:35;;;;;;;57.47;21.55;;;;;;;;;;5006832;28;20146;-56
2021/11/24 07:11:00;;;;;;;48.72;19.95;;;;;;;;;;5006130;28;20037;-56
2021/11/24 07:13:26;;;;;;;53.83;20.25;;;;;;;;;;5001454;28;20123;-56
2021/11/24 07:15:51;;;;;;;47.40;19.77;;;;;;;;;;4994028;28;20033;-57
2021/11/24 07:18:17;;;;;;;54.35;20.77;;;;;;;;;;4998728;28;20096;-55
2021/11/24 07:20:43;;;;;;;59.33;22.90;;;;;;;;;;4999162;28;20037;-56
2021/11/24 07:23:08;;;;;;;58.33;22.45;;;;;;;;;;5001469;28;20022;-56
2021/11/24 07:25:34;;;;;;;47.97;18.60;;;;;;;;;;5003034;28;20041;-56
2021/11/24 07:28:00;;;;;;;49.38;19.40;;;;;;;;;;4995913;28;20042;-55
2021/11/24 07:30:25;;;;;;;50.65;18.23;;;;;;;;;;5000073;28;20030;-57
2021/11/24 07:32:51;;;;;;;45.53;17.27;;;;;;;;;;5001798;28;20036;-55
2021/11/24 07:35:17;;;;;;;42.90;16.33;;;;;;;;;;5001008;28;20022;-55
2021/11/24 07:37:43;;;;;;;42.13;16.42;;;;;;;;;;4996975;28;20126;-55
2021/11/24 07:40:10;;;;;;;45.80;16.85;;;;;;;;;;5000030;28;20117;-57
2021/11/24 07:42:35;;;;;;;59.42;22.33;;;;;;;;;;5000381;28;20033;-56
2021/11/24 07:45:01;;;;;;;62.88;23.17;;;;;;;;;;5002425;28;20034;-57
2021/11/24 07:47:27;;;;;;;65.13;23.52;;;;;;;;;;5001568;28;20030;-56
2021/11/24 07:49:52;;;;;;;58.45;21.58;;;;;;;;;;4999780;28;20037;-56
2021/11/24 07:52:19;;;;;;;52.08;20.42;;;;;;;;;;4998571;28;20026;-54
2021/11/24 07:54:44;;;;;;;55.00;20.92;;;;;;;;;;4999313;28;20399;-55
2021/11/24 07:57:10;;;;;;;50.67;21.27;;;;;;;;;;5004061;28;20041;-55
2021/11/24 07:59:37;;;;;;;61.20;21.98;;;;;;;;;;4999240;28;20488;-57
2021/11/24 08:02:03;;;;;;;52.92;20.30;;;;;;;;;;5002776;28;20420;-57
2021/11/24 08:04:29;;;;;;;59.85;21.48;;;;;;;;;;5001438;28;20392;-57
2021/11/24 08:06:59;;;;;;;61.55;23.10;;;;;;;;;;4998465;28;20034;-56
2021/11/24 08:09:25;;;;;;;;;;;;;;;;;;5005659;28;20056;-56
2021/11/24 08:11:50;;;;;;;48.00;19.98;;;;;;;;;;5005539;28;20360;-57
2021/11/24 08:14:16;;;;;;;65.25;24.65;;;;;;;;;;5003230;28;20120;-56
2021/11/24 08:16:41;;;;;;;57.13;22.83;;;;;;;;;;4998872;28;20040;-57
2021/11/24 08:19:07;;;;;;;67.18;25.05;;;;;;;;;;5002207;28;20026;-56
2021/11/24 08:21:32;;;;;;;63.03;23.02;;;;;;;;;;5006867;28;20460;-56
2021/11/24 08:23:58;;;;;;;67.70;24.23;;;;;;;;;;5001170;28;20056;-56
2021/11/24 08:26:23;;;;;;;70.20;28.10;;;;;;;;;;5003565;28;20042;-53
2021/11/24 08:28:49;;;;;;;82.88;40.00;;;;;;;;;;5001733;28;20714;-56
2021/11/24 08:31:14;;;;;;;85.07;36.70;;;;;;;;;;5001623;28;20040;-56
2021/11/24 08:33:40;;;;;;;76.97;32.50;;;;;;;;;;5000453;28;20276;-55
2021/11/24 08:36:05;;;;;;;73.72;31.13;;;;;;;;;;4998683;28;20053;-56
2021/11/24 08:38:31;;;;;;;98.43;35.10;;;;;;;;;;5003650;28;20458;-54
2021/11/24 08:40:56;;;;;;;72.97;30.60;;;;;;;;;;5002369;28;20030;-54
2021/11/24 08:43:22;;;;;;;73.95;30.13;;;;;;;;;;4996675;28;20026;-56
2021/11/24 08:45:47;;;;;;;83.63;32.35;;;;;;;;;;5001104;28;20029;-54
2021/11/24 08:48:13;;;;;;;75.30;29.48;;;;;;;;;;4997954;28;20026;-55
2021/11/24 08:50:39;;;;;;;71.78;29.65;;;;;;;;;;5003381;28;20033;-56
2021/11/24 08:53:04;;;;;;;75.97;30.98;;;;;;;;;;4996999;28;20022;-56
2021/11/24 08:55:30;;;;;;;63.88;28.02;;;;;;;;;;5000646;28;20092;-56
2021/11/24 08:57:56;;;;;;;66.47;29.75;;;;;;;;;;5001799;28;20724;-57
2021/11/24 09:00:23;;;;;;;57.95;24.45;;;;;;;;;;5000157;28;20037;-57
2021/11/24 09:02:50;;;;;;;56.85;22.92;;;;;;;;;;5000050;28;20038;-55
2021/11/24 09:05:18;;;;;;;64.30;26.50;;;;;;;;;;5001935;28;20370;-57
2021/11/24 09:07:44;;;;;;;48.13;22.75;;;;;;;;;;4999451;28;20022;-55
2021/11/24 09:10:10;;;;;;;43.88;22.13;;;;;;;;;;5001780;28;20277;-55
2021/11/24 09:12:36;;;;;;;47.65;21.98;;;;;;;;;;5000520;28;20076;-55
2021/11/24 09:15:03;;;;;;;46.95;22.00;;;;;;;;;;4999390;28;20034;-56
2021/11/24 09:17:29;;;;;;;53.22;21.85;;;;;;;;;;4998801;28;20061;-57
2021/11/24 09:19:54;;;;;;;60.28;25.75;;;;;;;;;;4999436;28;20116;-57
2021/11/24 09:22:20;;;;;;;54.45;24.17;;;;;;;;;;5000915;28;20032;-56
2021/11/24 09:24:47;;;;;;;54.45;24.63;;;;;;;;;;5001422;28;20037;-56
2021/11/24 09:27:17;;;;;;;52.78;24.83;;;;;;;;;;5000632;28;20095;-57
2021/11/24 09:29:44;;;;;;;50.10;23.92;;;;;;;;;;4999958;28;20037;-57
2021/11/24 09:32:10;;;;;;;71.45;30.80;;;;;;;;;;5001543;28;20021;-57
2021/11/24 09:34:35;;;;;;;61.92;26.55;;;;;;;;;;5000373;28;20522;-56
2021/11/24 09:37:01;;;;;;;51.65;24.08;;;;;;;;;;5000814;28;20113;-56
2021/11/24 09:39:26;;;;;;;50.75;23.48;;;;;;;;;;4995303;28;20022;-58
2021/11/24 09:41:53;;;;;;;52.08;23.48;;;;;;;;;;4995106;28;20445;-57
2021/11/24 09:44:19;;;;;;;49.42;23.15;;;;;;;;;;5000605;28;20447;-57
2021/11/24 09:46:47;;;;;;;49.63;23.85;;;;;;;;;;4998113;28;20041;-56
2021/11/24 09:49:15;;;;;;;63.95;26.48;;;;;;;;;;5003914;28;20056;-57
2021/11/24 09:51:43;;;;;;;63.78;27.48;;;;;;;;;;5002540;28;20080;-56
2021/11/24 09:54:11;;;;;;;61.05;26.95;;;;;;;;;;5001704;28;20508;-56
2021/11/24 09:56:39;;;;;;;55.53;27.25;;;;;;;;;;5000256;28;20029;-56
2021/11/24 09:59:05;;;;;;;61.60;28.75;;;;;;;;;;5000892;28;20073;-57
2021/11/24 10:01:31;;;;;;;73.30;29.98;;;;;;;;;;5000223;28;20060;-57
2021/11/24 10:03:58;;;;;;;53.35;25.67;;;;;;;;;;4996069;28;20038;-56
2021/11/24 10:06:23;;;;;;;48.35;24.42;;;;;;;;;;5000377;28;20033;-57
2021/11/24 10:08:51;;;;;;;45.95;22.85;;;;;;;;;;4999951;28;20431;-56
2021/11/24 10:11:18;;;;;;;47.75;22.90;;;;;;;;;;5005044;28;20523;-57
2021/11/24 10:13:45;;;;;;;44.45;21.98;;;;;;;;;;5004041;28;20034;-57
2021/11/24 10:16:28;;;;;;;57.40;24.48;;;;;;;;;;5006548;28;20026;-56
2021/11/24 10:19:06;;;;;;;58.22;25.48;;;;;;;;;;5002745;28;20033;-55
2021/11/24 10:21:32;;;;;;;50.70;23.15;;;;;;;;;;4999440;28;20116;-57
2021/11/24 10:24:04;;;;;;;49.60;24.83;;;;;;;;;;5002113;28;20029;-55
2021/11/24 10:26:38;;;;;;;52.40;25.52;;;;;;;;;;4998040;28;20354;-54
2021/11/24 10:29:07;;;;;;;56.75;25.45;;;;;;;;;;5000399;28;20026;-55
2021/11/24 10:32:14;;;;;;;47.65;23.50;;;;;;;;;;5002906;28;20040;-57
2021/11/24 10:34:42;;;;;;;44.15;22.17;;;;;;;;;;4964384;28;20027;-56
2021/11/24 10:37:08;;;;;;;46.95;22.80;;;;;;;;;;4994546;28;20034;-56
2021/11/24 10:39:51;;;;;;;56.72;25.48;;;;;;;;;;5002991;28;20033;-56
2021/11/24 10:42:46;;;;;;;43.75;22.30;;;;;;;;;;5003244;28;20092;-57
2021/11/24 10:45:14;;;;;;;53.20;24.65;;;;;;;;;;5001588;28;20030;-56
2021/11/24 10:47:59;;;;;;;46.00;21.88;;;;;;;;;;4999385;28;20117;-56
2021/11/24 10:50:34;;;;;;;41.40;21.95;;;;;;;;;;5003282;28;20033;-58
2021/11/24 10:53:00;;;;;;;44.95;22.30;;;;;;;;;;5002187;28;20022;-57
2021/11/24 10:55:30;;;;;;;41.45;20.45;;;;;;;;;;5003120;28;20109;-57
2021/11/24 10:58:05;;;;;;;42.85;21.13;;;;;;;;;;5000855;28;20041;-56
2021/11/24 11:00:37;;;;;;;36.72;19.70;;;;;;;;;;4999067;28;20063;-56
2021/11/24 11:03:04;;;;;;;43.90;20.25;;;;;;;;;;5003029;28;20025;-56
2021/11/24 11:05:30;;;;;;;40.78;20.42;;;;;;;;;;5003531;28;20045;-56
2021/11/24 11:08:00;;;;;;;37.00;19.10;;;;;;;;;;5002208;28;20420;-57
2021/11/24 11:10:28;;;;;;;41.90;20.33;;;;;;;;;;5000973;28;20120;-57
2021/11/24 11:13:18;;;;;;;48.75;22.15;;;;;;;;;;5003600;28;20030;-58
2021/11/24 11:15:52;;;;;;;54.80;23.13;;;;;;;;;;4997019;28;20098;-57
2021/11/24 11:18:18;;;;;;;45.67;19.85;;;;;;;;;;5002595;28;20034;-57
2021/11/24 11:20:49;;;;;;;46.10;21.50;;;;;;;;;;5001201;28;20033;-56
2021/11/24 11:23:19;;;;;;;41.65;19.17;;;;;;;;;;5004790;28;20025;-57
2021/11/24 11:25:58;;;;;;;34.60;16.13;;;;;;;;;;5001043;28;20072;-56
2021/11/24 11:28:26;;;;;;;36.65;17.42;;;;;;;;;;5002062;28;20041;-57
2021/11/24 11:30:54;;;;;;;42.83;19.60;;;;;;;;;;5003771;28;20029;-57
2021/11/24 11:33:26;;;;;;;41.05;19.00;;;;;;;;;;5002192;28;20365;-57
2021/11/24 11:35:52;;;;;;;39.67;18.25;;;;;;;;;;5005333;28;20022;-55
2021/11/24 11:38:19;;;;;;;37.08;16.58;;;;;;;;;;5000467;28;20374;-57
2021/11/24 11:40:48;;;;;;;33.45;16.00;;;;;;;;;;5001018;28;20040;-57
2021/11/24 11:43:15;;;;;;;32.10;14.90;;;;;;;;;;5005705;28;20199;-56
2021/11/24 11:45:41;;;;;;;34.38;15.55;;;;;;;;;;5003875;28;20068;-57
2021/11/24 11:48:08;;;;;;;29.38;13.45;;;;;;;;;;5001416;28;20029;-59
2021/11/24 11:51:14;;;;;;;25.63;12.15;;;;;;;;;;5003474;28;20025;-57
2021/11/24 11:53:50;;;;;;;33.15;12.93;;;;;;;;;;4996928;28;20112;-56
2021/11/24 11:56:30;;;;;;;28.45;11.88;;;;;;;;;;4999628;28;20100;-56
2021/11/24 11:59:01;;;;;;;25.65;12.55;;;;;;;;;;4999728;28;20092;-58
2021/11/24 12:01:57;;;;;;;26.58;12.10;;;;;;;;;;5001774;28;20121;-57
2021/11/24 12:04:27;;;;;;;25.23;12.00;;;;;;;;;;5003742;28;20121;-56
2021/11/24 12:06:53;;;;;;;29.25;12.57;;;;;;;;;;4998273;28;20057;-55
2021/11/24 12:09:24;;;;;;;23.58;11.30;;;;;;;;;;5002004;28;20062;-56
2021/11/24 12:12:05;;;;;;;27.50;12.15;;;;;;;;;;5004782;28;20033;-57
2021/11/24 12:14:50;;;;;;;23.60;11.00;;;;;;;;;;5001386;28;20504;-55
2021/11/24 12:20:08;;;;;;;33.42;14.98;;;;;;;;;;5002843;28;20065;-56
2021/11/24 12:22:45;;;;;;;;;;;;;;;;;;;;;
2021/11/24 12:25:26;;;;;;;30.92;14.80;;;;;;;;;;4998122;28;20508;-56
2021/11/24 12:27:54;;;;;;;28.48;14.43;;;;;;;;;;5001569;28;20129;-57
2021/11/24 12:33:26;;;;;;;33.03;14.10;;;;;;;;;;4998872;28;20504;-58
2021/11/24 12:36:01;;;;;;;30.85;13.07;;;;;;;;;;4999162;28;20584;-57
2021/11/24 12:38:35;;;;;;;26.90;12.18;;;;;;;;;;5000899;28;20033;-56
2021/11/24 12:41:07;;;;;;;27.40;12.68;;;;;;;;;;5000709;28;20484;-58
2021/11/24 12:43:39;;;;;;;30.10;12.70;;;;;;;;;;5002081;28;20073;-58
2021/11/24 12:46:12;;;;;;;27.75;13.15;;;;;;;;;;5000169;28;20026;-56
2021/11/24 12:48:44;;;;;;;28.42;12.50;;;;;;;;;;4996792;28;20065;-56
2021/11/24 12:51:15;;;;;;;26.15;12.32;;;;;;;;;;5000145;28;20488;-56
2021/11/24 12:53:40;;;;;;;27.45;12.80;;;;;;;;;;5003526;28;20038;-57
2021/11/24 12:56:12;;;;;;;26.38;11.75;;;;;;;;;;4998680;28;20578;-56
2021/11/24 12:58:38;;;;;;;29.83;13.27;;;;;;;;;;4998228;28;20034;-56
2021/11/24 13:01:25;;;;;;;28.75;12.57;;;;;;;;;;5003139;28;20048;-57
2021/11/24 13:04:00;;;;;;;27.13;12.52;;;;;;;;;;5000526;28;20026;-57
2021/11/24 13:06:28;;;;;;;29.95;13.15;;;;;;;;;;5001349;28;20519;-58
2021/11/24 13:09:04;;;;;;;32.90;13.95;;;;;;;;;;4997722;28;20053;-56
2021/11/24 13:11:30;;;;;;;27.90;13.20;;;;;;;;;;5000376;28;20036;-56
2021/11/24 13:13:58;;;;;;;30.27;13.35;;;;;;;;;;4998372;28;20026;-57
2021/11/24 13:16:23;;;;;;;31.80;13.60;;;;;;;;;;5003657;28;20038;-55
2021/11/24 13:18:53;;;;;;;31.33;13.93;;;;;;;;;;5002871;28;20691;-56
2021/11/24 13:21:19;;;;;;;29.30;12.38;;;;;;;;;;5000262;28;20030;-55
2021/11/24 13:23:45;;;;;;;32.38;14.52;;;;;;;;;;5000342;28;20031;-56
2021/11/24 13:26:10;;;;;;;33.03;13.52;;;;;;;;;;5000477;28;20026;-55
2021/11/24 13:28:36;;;;;;;35.60;14.48;;;;;;;;;;5001350;28;20555;-56
2021/11/24 13:31:01;;;;;;;31.73;12.98;;;;;;;;;;5002718;28;20385;-56
2021/11/24 13:33:37;;;;;;;34.17;13.98;;;;;;;;;;5002228;28;20041;-57
2021/11/24 13:36:05;;;;;;;32.78;14.95;;;;;;;;;;5003495;28;20036;-57
2021/11/24 13:38:41;;;;;;;30.63;12.20;;;;;;;;;;4999139;28;20438;-56
2021/11/24 13:41:14;;;;;;;28.50;11.35;;;;;;;;;;5001563;28;20391;-58
2021/11/24 13:43:45;;;;;;;28.80;11.18;;;;;;;;;;5004140;28;20392;-56
2021/11/24 13:46:13;;;;;;;25.67;10.95;;;;;;;;;;5003061;28;20084;-56
2021/11/24 13:48:38;;;;;;;27.77;11.52;;;;;;;;;;5004548;28;20504;-55
2021/11/24 13:51:07;;;;;;;34.10;12.18;;;;;;;;;;5007778;28;20037;-56
2021/11/24 13:53:38;;;;;;;30.55;11.68;;;;;;;;;;5002939;28;20037;-57
2021/11/24 13:56:12;;;;;;;29.00;12.18;;;;;;;;;;5004601;28;20045;-56
2021/11/24 13:58:40;;;;;;;27.85;12.25;;;;;;;;;;5004521;28;20099;-57
2021/11/24 14:01:19;;;;;;;31.23;12.43;;;;;;;;;;5004697;28;20057;-57
2021/11/24 14:03:50;;;;;;;33.50;13.57;;;;;;;;;;5002689;28;20043;-57
2021/11/24 14:06:36;;;;;;;38.28;13.75;;;;;;;;;;5001033;28;20137;-57
2021/11/24 14:09:26;;;;;;;33.65;13.23;;;;;;;;;;5003052;28;20022;-57
2021/11/24 14:12:16;;;;;;;32.30;12.85;;;;;;;;;;5007745;28;20041;-57
2021/11/24 14:14:53;;;;;;;36.22;13.38;;;;;;;;;;5005001;28;20034;-56
2021/11/24 14:17:39;;;;;;;42.47;15.07;;;;;;;;;;4999985;28;20076;-56
2021/11/24 14:20:08;;;;;;;35.17;13.55;;;;;;;;;;5002239;28;20033;-55
2021/11/24 14:22:34;;;;;;;46.05;16.17;;;;;;;;;;5002612;28;20026;-56
2021/11/24 14:25:00;;;;;;;64.05;25.48;;;;;;;;;;5002661;28;20793;-55
2021/11/24 14:27:25;;;;;;;59.95;23.42;;;;;;;;;;5000352;28;20037;-56
2021/11/24 14:29:51;;;;;;;44.50;16.80;;;;;;;;;;5005754;28;20492;-57
2021/11/24 14:32:16;;;;;;;48.13;16.13;;;;;;;;;;5003539;28;20321;-56